Time;durP1;ratioP1;P1;durP2;ratioP2;P2;SDS_P1;SDS_P2;PMS_P1;PMS_P2;Temp;Humidity;BMP_temperature;BMP_pressure;BME280_temperature;BME280_humidity;BME280_pressure;Samples;Min_cycle;Max_cycle;Signal;HPM_P1;HPM_P2
2023/12/26 00:02:08;;;;;;;19.93;10.20;;;9.70;99.90;;;;;;5094807;28;20044;-75
2023/12/26 00:04:34;;;;;;;9.27;4.73;;;9.80;99.90;;;;;;5095317;28;20328;-74
2023/12/26 00:07:00;;;;;;;9.10;3.60;;;9.80;99.90;;;;;;5093388;28;20044;-74
2023/12/26 00:09:26;;;;;;;7.90;2.80;;;9.80;99.90;;;;;;5094667;28;20134;-74
2023/12/26 00:11:51;;;;;;;6.87;3.07;;;9.80;99.90;;;;;;5094629;28;20044;-75
2023/12/26 00:14:17;;;;;;;8.80;2.80;;;9.80;99.90;;;;;;5094603;28;20460;-74
2023/12/26 00:16:43;;;;;;;6.87;1.90;;;9.80;99.90;;;;;;5094512;28;20609;-74
2023/12/26 00:19:09;;;;;;;6.20;2.03;;;9.80;99.90;;;;;;5093605;28;20496;-74
2023/12/26 00:21:39;;;;;;;6.70;2.00;;;9.80;99.90;;;;;;5095049;28;20278;-74
2023/12/26 00:24:06;;;;;;;6.47;1.90;;;9.90;99.90;;;;;;5094417;28;20671;-74
2023/12/26 00:26:31;;;;;;;4.43;1.93;;;9.80;99.90;;;;;;5094402;28;20275;-74
2023/12/26 00:28:57;;;;;;;5.23;2.00;;;9.90;99.90;;;;;;5093355;28;20342;-74
2023/12/26 00:31:23;;;;;;;5.57;1.57;;;9.90;99.90;;;;;;5094261;28;20051;-75
2023/12/26 00:33:48;;;;;;;7.03;1.60;;;9.90;99.90;;;;;;5094181;28;20054;-74
2023/12/26 00:36:18;;;;;;;4.60;1.30;;;9.90;99.90;;;;;;5094152;28;20127;-75
2023/12/26 00:38:47;;;;;;;5.43;1.17;;;9.90;99.90;;;;;;5093807;28;20082;-75
2023/12/26 00:41:16;;;;;;;4.87;1.27;;;9.90;99.90;;;;;;5093719;28;20277;-75
2023/12/26 00:43:42;;;;;;;9.50;1.40;;;9.90;99.90;;;;;;5093698;28;20278;-75
2023/12/26 00:46:08;;;;;;;10.50;2.10;;;9.90;99.90;;;;;;5093643;28;20282;-75
2023/12/26 00:48:37;;;;;;;6.17;1.30;;;9.90;99.90;;;;;;5093619;28;20278;-75
2023/12/26 00:51:03;;;;;;;9.47;1.53;;;9.90;99.90;;;;;;5093301;28;20062;-75
2023/12/26 00:53:29;;;;;;;8.90;1.53;;;9.90;99.90;;;;;;5093603;28;20281;-75
2023/12/26 00:55:55;;;;;;;9.73;1.77;;;9.90;99.90;;;;;;5093579;28;20266;-75
2023/12/26 00:58:20;;;;;;;12.20;2.23;;;9.90;99.90;;;;;;5094658;28;20389;-75
2023/12/26 01:00:46;;;;;;;11.50;1.83;;;9.90;99.90;;;;;;5092882;28;20396;-75
2023/12/26 01:03:13;;;;;;;11.10;1.50;;;9.90;99.90;;;;;;5094354;28;20044;-75
2023/12/26 01:05:38;;;;;;;15.93;1.87;;;9.90;99.90;;;;;;5093913;28;20377;-75
2023/12/26 01:08:05;;;;;;;15.00;2.07;;;9.90;99.90;;;;;;5093674;28;20350;-75
2023/12/26 01:10:30;;;;;;;14.83;2.00;;;9.80;99.90;;;;;;5093335;28;20376;-75
2023/12/26 01:12:56;;;;;;;15.73;2.10;;;9.80;99.90;;;;;;5093624;28;20282;-75
2023/12/26 01:15:22;;;;;;;13.43;1.83;;;9.80;99.90;;;;;;5075990;28;20468;-75
2023/12/26 01:17:48;;;;;;;23.07;2.53;;;9.80;99.90;;;;;;5093334;28;20480;-75
2023/12/26 01:20:14;;;;;;;13.37;2.03;;;9.80;99.90;;;;;;5092556;28;20332;-75
2023/12/26 01:22:40;;;;;;;12.97;1.50;;;9.80;99.90;;;;;;5093324;28;20076;-76
2023/12/26 01:25:06;;;;;;;18.30;2.43;;;9.70;99.90;;;;;;5093634;28;20498;-75
2023/12/26 01:27:33;;;;;;;15.63;2.07;;;9.80;99.90;;;;;;5093695;28;20048;-75
2023/12/26 01:30:01;;;;;;;17.13;2.83;;;9.80;99.90;;;;;;5093614;28;20286;-75
2023/12/26 01:32:27;;;;;;;19.90;4.17;;;9.70;99.90;;;;;;5092411;28;20282;-76
2023/12/26 01:34:53;;;;;;;22.53;3.13;;;9.80;99.90;;;;;;5093202;28;20768;-75
2023/12/26 01:37:19;;;;;;;19.57;2.90;;;9.70;99.90;;;;;;5093607;28;20356;-76
2023/12/26 01:39:45;;;;;;;20.53;2.73;;;9.70;99.90;;;;;;5093693;28;20040;-76
2023/12/26 01:42:10;;;;;;;23.80;3.07;;;9.70;99.90;;;;;;5092259;28;20048;-75
2023/12/26 01:44:36;;;;;;;17.60;2.53;;;9.70;99.90;;;;;;5093377;28;20104;-75
2023/12/26 01:47:03;;;;;;;20.97;3.40;;;9.60;99.90;;;;;;5093383;28;20059;-75
2023/12/26 01:49:29;;;;;;;23.90;3.00;;;9.70;99.90;;;;;;5093476;28;20040;-75
2023/12/26 01:51:56;;;;;;;18.60;2.70;;;9.70;99.90;;;;;;5092972;28;20672;-75
2023/12/26 01:54:31;;;;;;;21.67;2.67;;;9.60;99.90;;;;;;5094021;28;20274;-76
2023/12/26 01:56:58;;;;;;;27.17;3.95;;;9.60;99.90;;;;;;5075903;28;20416;-76
2023/12/26 01:59:24;;;;;;;25.57;3.20;;;9.60;99.90;;;;;;5093828;28;20040;-76
2023/12/26 02:01:50;;;;;;;20.43;3.63;;;9.60;99.90;;;;;;5092376;28;20278;-76
2023/12/26 02:04:15;;;;;;;30.00;4.47;;;9.60;99.90;;;;;;5093275;28;20048;-76
2023/12/26 02:06:41;;;;;;;20.03;2.70;;;9.60;99.90;;;;;;5094525;28;20051;-76
2023/12/26 02:09:10;;;;;;;23.93;3.50;;;9.60;99.90;;;;;;5096766;28;20052;-76
2023/12/26 02:11:38;;;;;;;15.93;2.40;;;9.60;99.90;;;;;;5095798;28;20454;-76
2023/12/26 02:14:05;;;;;;;20.40;3.27;;;9.60;99.90;;;;;;5096952;28;20339;-76
2023/12/26 02:16:37;;;;;;;23.83;2.93;;;9.60;99.90;;;;;;5095942;28;20313;-76
2023/12/26 02:19:03;;;;;;;24.80;2.90;;;9.60;99.90;;;;;;5097638;28;20619;-76
2023/12/26 02:21:29;;;;;;;21.63;2.73;;;9.50;99.90;;;;;;5096812;28;20271;-76
2023/12/26 02:23:56;;;;;;;17.77;3.20;;;9.50;99.90;;;;;;5096720;28;20284;-76
2023/12/26 02:26:23;;;;;;;21.83;3.33;;;9.50;99.90;;;;;;5096776;28;20109;-76
2023/12/26 02:28:50;;;;;;;14.10;2.47;;;9.50;99.90;;;;;;5096002;28;20286;-76
2023/12/26 02:31:17;;;;;;;18.70;2.77;;;9.40;99.90;;;;;;5095636;28;20282;-76
2023/12/26 02:33:45;;;;;;;14.67;3.13;;;9.40;99.90;;;;;;5096652;28;20316;-77
2023/12/26 02:36:11;;;;;;;15.53;3.03;;;9.40;99.90;;;;;;5096531;28;20285;-77
2023/12/26 02:38:37;;;;;;;21.67;3.03;;;9.30;99.90;;;;;;5096209;28;20302;-76
2023/12/26 02:41:02;;;;;;;22.10;3.60;;;9.30;99.90;;;;;;5094417;28;20044;-76
2023/12/26 02:43:28;;;;;;;12.20;2.47;;;9.30;99.90;;;;;;5095007;28;20052;-77
2023/12/26 02:45:54;;;;;;;14.87;3.17;;;9.30;99.90;;;;;;5096563;28;20376;-76
2023/12/26 02:48:20;;;;;;;15.90;2.77;;;9.30;99.90;;;;;;5096029;28;20061;-76
2023/12/26 02:50:46;;;;;;;17.50;3.20;;;9.20;99.90;;;;;;5095593;28;20488;-76
2023/12/26 02:53:12;;;;;;;16.30;3.43;;;9.30;99.90;;;;;;5095010;28;20113;-76
2023/12/26 02:55:38;;;;;;;16.20;3.17;;;9.20;99.90;;;;;;5096032;28;20274;-76
2023/12/26 02:58:04;;;;;;;20.43;3.63;;;9.10;99.90;;;;;;5095724;28;20308;-76
2023/12/26 03:00:30;;;;;;;14.80;2.50;;;9.10;99.90;;;;;;5096117;28;20078;-77
2023/12/26 03:02:56;;;;;;;16.40;3.10;;;9.20;99.90;;;;;;5095764;28;20551;-76
2023/12/26 03:05:23;;;;;;;15.77;2.47;;;9.20;99.90;;;;;;5095955;28;20369;-76
2023/12/26 03:07:49;;;;;;;19.20;3.00;;;9.20;99.90;;;;;;5095958;28;20056;-76
2023/12/26 03:10:15;;;;;;;23.67;3.90;;;9.20;99.90;;;;;;5096112;28;20314;-76
2023/12/26 03:12:41;;;;;;;13.40;3.10;;;9.10;99.90;;;;;;5095846;28;20278;-76
2023/12/26 03:15:10;;;;;;;10.80;2.63;;;9.10;99.90;;;;;;5095073;28;20290;-76
2023/12/26 03:17:35;;;;;;;15.33;3.63;;;9.00;99.90;;;;;;5095992;28;20278;-76
2023/12/26 03:20:01;;;;;;;12.37;2.97;;;9.00;99.90;;;;;;5095305;28;20380;-76
2023/12/26 03:22:27;;;;;;;18.30;3.47;;;9.00;99.90;;;;;;5095754;28;20055;-77
2023/12/26 03:24:53;;;;;;;20.13;3.83;;;8.90;99.90;;;;;;5095529;28;20051;-77
2023/12/26 03:27:19;;;;;;;17.70;3.33;;;8.80;99.90;;;;;;5096029;28;20143;-76
2023/12/26 03:29:45;;;;;;;15.77;3.47;;;8.80;99.90;;;;;;5095528;28;20071;-76
2023/12/26 03:32:12;;;;;;;23.47;4.83;;;8.70;99.90;;;;;;5094243;28;20368;-76
2023/12/26 03:34:38;;;;;;;17.43;3.03;;;8.70;99.90;;;;;;5094160;28;20056;-76
2023/12/26 03:37:04;;;;;;;18.27;2.83;;;8.70;99.90;;;;;;5094367;28;20336;-76
2023/12/26 03:39:29;;;;;;;14.40;3.17;;;8.60;99.90;;;;;;5095253;28;20307;-76
2023/12/26 03:41:56;;;;;;;19.33;2.93;;;8.60;99.90;;;;;;5095274;28;20286;-77
2023/12/26 03:44:21;;;;;;;24.17;3.00;;;8.50;99.90;;;;;;5095743;28;20052;-77
2023/12/26 03:46:47;;;;;;;14.60;3.47;;;8.50;99.90;;;;;;5093959;28;20278;-76
2023/12/26 03:49:13;;;;;;;22.53;4.30;;;8.50;99.90;;;;;;5095076;28;20401;-76
2023/12/26 03:51:39;;;;;;;24.63;4.87;;;8.40;99.90;;;;;;5095846;28;20558;-77
2023/12/26 03:54:04;;;;;;;14.87;3.20;;;8.40;99.90;;;;;;5095038;28;20545;-76
2023/12/26 03:56:31;;;;;;;20.70;5.03;;;8.40;99.90;;;;;;5077436;28;20048;-77
2023/12/26 03:58:58;;;;;;;20.77;3.57;;;8.30;99.90;;;;;;5094577;28;20602;-77
2023/12/26 04:01:24;;;;;;;22.10;4.00;;;8.30;99.90;;;;;;5095686;28;20331;-78
2023/12/26 04:03:50;;;;;;;18.83;4.40;;;8.30;99.90;;;;;;5093812;28;20781;-77
2023/12/26 04:06:16;;;;;;;24.00;4.03;;;8.30;99.90;;;;;;5094729;28;20356;-76
2023/12/26 04:08:42;;;;;;;28.00;3.57;;;8.20;99.90;;;;;;5094250;28;20283;-77
2023/12/26 04:11:12;;;;;;;19.20;4.33;;;8.20;99.90;;;;;;5094683;28;20055;-76
2023/12/26 04:13:38;;;;;;;22.87;5.13;;;8.20;99.90;;;;;;5093562;28;20277;-77
2023/12/26 04:16:04;;;;;;;23.60;3.90;;;8.10;99.90;;;;;;5094855;28;20622;-77
2023/12/26 04:18:30;;;;;;;22.20;3.50;;;8.10;99.90;;;;;;5094459;28;20040;-77
2023/12/26 04:20:56;;;;;;;19.27;3.40;;;8.10;99.90;;;;;;5093378;28;20274;-77
2023/12/26 04:23:22;;;;;;;21.00;3.63;;;8.10;99.90;;;;;;5094499;28;20344;-77
2023/12/26 04:25:47;;;;;;;28.27;4.03;;;8.10;99.90;;;;;;5093259;28;20282;-77
2023/12/26 04:28:14;;;;;;;16.23;3.47;;;8.10;99.90;;;;;;5095173;28;20040;-77
2023/12/26 04:30:40;;;;;;;19.93;3.57;;;8.10;99.90;;;;;;5095182;28;20040;-77
2023/12/26 04:33:07;;;;;;;22.33;2.90;;;8.10;99.90;;;;;;5094050;28;20830;-77
2023/12/26 04:35:34;;;;;;;17.53;3.07;;;8.00;99.90;;;;;;5094353;28;20309;-77
2023/12/26 04:38:00;;;;;;;20.40;3.63;;;8.00;99.90;;;;;;5094765;28;20301;-78
2023/12/26 04:40:26;;;;;;;19.53;3.63;;;8.00;99.90;;;;;;5094088;28;20282;-77
2023/12/26 04:42:52;;;;;;;21.13;2.90;;;8.00;99.90;;;;;;5093512;28;20059;-77
2023/12/26 04:45:18;;;;;;;20.83;4.30;;;8.00;99.90;;;;;;5093187;28;20286;-78
2023/12/26 04:47:43;;;;;;;18.20;3.53;;;8.00;99.90;;;;;;5093856;28;20286;-78
2023/12/26 04:50:09;;;;;;;21.73;3.60;;;8.00;99.90;;;;;;5094093;28;20145;-78
2023/12/26 04:52:35;;;;;;;18.00;3.30;;;8.00;99.90;;;;;;5093984;28;20084;-77
2023/12/26 04:55:01;;;;;;;20.83;4.27;;;8.00;99.90;;;;;;5093977;28;20079;-77
2023/12/26 04:57:27;;;;;;;23.53;3.70;;;7.90;99.90;;;;;;5093945;28;20048;-77
2023/12/26 04:59:53;;;;;;;18.10;3.00;;;7.90;99.90;;;;;;5094418;28;20305;-77
2023/12/26 05:02:19;;;;;;;19.93;4.03;;;7.90;99.90;;;;;;5094378;28;20040;-77
2023/12/26 05:04:44;;;;;;;18.13;3.13;;;7.90;99.90;;;;;;5093914;28;20052;-77
2023/12/26 05:07:11;;;;;;;16.53;2.97;;;8.00;99.90;;;;;;5092775;28;20412;-77
2023/12/26 05:09:37;;;;;;;21.00;4.00;;;8.00;99.90;;;;;;5092632;28;20048;-78
2023/12/26 05:12:03;;;;;;;18.83;3.30;;;8.00;99.90;;;;;;5093806;28;20353;-77
2023/12/26 05:14:29;;;;;;;14.10;2.83;;;8.10;99.90;;;;;;5092602;28;20044;-77
2023/12/26 05:16:55;;;;;;;23.37;3.73;;;8.10;99.90;;;;;;5093711;28;20769;-77
2023/12/26 05:19:20;;;;;;;17.53;3.43;;;8.10;99.90;;;;;;5093226;28;20354;-77
2023/12/26 05:21:46;;;;;;;17.73;3.50;;;8.10;99.90;;;;;;5094011;28;20052;-77
2023/12/26 05:24:12;;;;;;;15.13;2.63;;;8.20;99.90;;;;;;5092663;28;20059;-77
2023/12/26 05:26:39;;;;;;;26.20;3.73;;;8.20;99.90;;;;;;5093676;28;20178;-78
2023/12/26 05:29:05;;;;;;;16.57;3.00;;;8.20;99.90;;;;;;5092141;28;20758;-77
2023/12/26 05:31:31;;;;;;;21.53;3.93;;;8.30;99.90;;;;;;5093218;28;20380;-77
2023/12/26 05:33:58;;;;;;;17.10;3.57;;;8.30;99.90;;;;;;5092407;28;20040;-79
2023/12/26 05:36:24;;;;;;;15.10;3.20;;;8.30;99.90;;;;;;5093572;28;20048;-77
2023/12/26 05:38:49;;;;;;;17.43;3.20;;;8.40;99.90;;;;;;5093430;28;20300;-77
2023/12/26 05:41:15;;;;;;;13.37;2.90;;;8.40;99.90;;;;;;5094969;28;20075;-77
2023/12/26 05:43:41;;;;;;;16.73;3.63;;;8.40;99.90;;;;;;5098114;28;20396;-79
2023/12/26 05:46:06;;;;;;;17.20;3.93;;;8.40;99.90;;;;;;5097484;28;20567;-79
2023/12/26 05:48:33;;;;;;;11.53;2.40;;;8.50;99.90;;;;;;5096437;28;20056;-78
2023/12/26 05:50:59;;;;;;;18.77;2.67;;;8.50;99.90;;;;;;5097429;28;20052;-78
2023/12/26 05:53:29;;;;;;;24.70;3.77;;;8.50;99.90;;;;;;5096676;28;20290;-79
2023/12/26 05:55:54;;;;;;;18.03;3.47;;;8.50;99.90;;;;;;5097360;28;20543;-79
2023/12/26 05:58:20;;;;;;;19.53;2.70;;;8.50;99.90;;;;;;5097142;28;20381;-79
2023/12/26 06:00:46;;;;;;;23.87;4.07;;;8.50;99.90;;;;;;5096795;28;20044;-79
2023/12/26 06:03:12;;;;;;;18.83;3.53;;;8.50;99.90;;;;;;5096049;28;20135;-80
2023/12/26 06:05:37;;;;;;;18.87;3.23;;;8.50;99.90;;;;;;5097120;28;20481;-79
2023/12/26 06:08:03;;;;;;;19.93;3.17;;;8.50;99.90;;;;;;5097263;28;20388;-79
2023/12/26 06:10:29;;;;;;;14.90;2.50;;;8.50;99.90;;;;;;5097325;28;20390;-79
2023/12/26 06:12:55;;;;;;;23.07;4.03;;;8.40;99.90;;;;;;5096935;28;20278;-79
2023/12/26 06:15:20;;;;;;;19.23;3.37;;;8.40;99.90;;;;;;5096903;28;20048;-79
2023/12/26 06:17:46;;;;;;;15.53;2.50;;;8.30;99.90;;;;;;5096192;28;20054;-80
2023/12/26 06:20:14;;;;;;;22.87;3.97;;;8.30;99.90;;;;;;5096864;28;20047;-79
2023/12/26 06:22:40;;;;;;;16.47;2.67;;;8.20;99.90;;;;;;5096877;28;20055;-78
2023/12/26 06:25:06;;;;;;;16.00;3.30;;;8.20;99.90;;;;;;5096071;28;20284;-79
2023/12/26 06:27:31;;;;;;;24.10;4.17;;;8.10;99.90;;;;;;5096686;28;20048;-79
2023/12/26 06:29:57;;;;;;;17.30;3.50;;;8.20;99.90;;;;;;5096755;28;20044;-79
2023/12/26 06:32:23;;;;;;;17.47;3.23;;;8.10;99.90;;;;;;5096596;28;20093;-79
2023/12/26 06:34:48;;;;;;;20.40;3.33;;;8.20;99.90;;;;;;5095869;28;20047;-80
2023/12/26 06:37:14;;;;;;;25.33;3.90;;;8.20;99.90;;;;;;5097324;28;20043;-80
2023/12/26 06:39:40;;;;;;;21.00;3.47;;;8.20;99.90;;;;;;5095238;28;20051;-79
2023/12/26 06:42:06;;;;;;;21.50;4.27;;;8.20;99.90;;;;;;5096526;28;20553;-80
2023/12/26 06:44:31;;;;;;;17.40;3.63;;;8.20;99.90;;;;;;5096932;28;20546;-80
2023/12/26 06:46:57;;;;;;;19.90;3.07;;;8.20;99.90;;;;;;5096347;28;20377;-80
2023/12/26 06:49:23;;;;;;;32.03;3.37;;;8.20;99.90;;;;;;5095556;28;20044;-78
2023/12/26 06:51:48;;;;;;;26.40;3.63;;;8.20;99.90;;;;;;5096304;28;20048;-80
2023/12/26 06:54:14;;;;;;;23.20;3.70;;;8.20;99.90;;;;;;5095257;28;20044;-80
2023/12/26 06:56:40;;;;;;;20.60;3.73;;;8.20;99.90;;;;;;5095141;28;20468;-79
2023/12/26 06:59:05;;;;;;;21.17;4.67;;;8.20;99.90;;;;;;5094958;28;20131;-80
2023/12/26 07:01:33;;;;;;;26.17;4.43;;;8.20;99.90;;;;;;5096831;28;20081;-80
2023/12/26 07:04:00;;;;;;;23.20;4.07;;;8.20;99.90;;;;;;5096324;28;20052;-81
2023/12/26 07:06:27;;;;;;;23.07;3.97;;;8.20;99.90;;;;;;5095257;28;20377;-79
2023/12/26 07:08:52;;;;;;;21.83;3.67;;;8.20;99.90;;;;;;5094623;28;20294;-80
2023/12/26 07:11:18;;;;;;;24.37;5.03;;;8.10;99.90;;;;;;5094836;28;20284;-80
2023/12/26 07:13:44;;;;;;;23.07;4.23;;;8.10;99.90;;;;;;5095824;28;20048;-80
2023/12/26 07:16:10;;;;;;;22.07;4.00;;;8.10;99.90;;;;;;5094704;28;20051;-80
2023/12/26 07:18:35;;;;;;;30.63;4.50;;;8.10;99.90;;;;;;5095644;28;20051;-80
2023/12/26 07:21:01;;;;;;;23.13;3.80;;;8.10;99.90;;;;;;5095234;28;20056;-80
2023/12/26 07:23:27;;;;;;;25.07;4.67;;;8.10;99.90;;;;;;5095854;28;20127;-80
2023/12/26 07:25:53;;;;;;;18.90;3.67;;;8.10;99.90;;;;;;5094382;28;20598;-80
2023/12/26 07:28:18;;;;;;;20.53;4.30;;;8.10;99.90;;;;;;5095223;28;20484;-80
2023/12/26 07:30:45;;;;;;;17.70;3.73;;;8.20;99.90;;;;;;5094297;28;20361;-80
2023/12/26 07:33:10;;;;;;;20.97;4.17;;;8.10;99.90;;;;;;5095463;28;20078;-80
2023/12/26 07:35:37;;;;;;;23.37;3.67;;;8.10;99.90;;;;;;5095343;28;20278;-79
2023/12/26 07:38:04;;;;;;;21.07;3.80;;;8.10;99.90;;;;;;5094120;28;20051;-79
2023/12/26 07:40:31;;;;;;;20.40;4.00;;;8.10;99.90;;;;;;5095875;28;20283;-79
2023/12/26 07:42:57;;;;;;;20.63;4.03;;;8.10;99.90;;;;;;5096068;28;20365;-79
2023/12/26 07:45:24;;;;;;;21.47;3.77;;;8.10;99.90;;;;;;5095747;28;20366;-80
2023/12/26 07:47:53;;;;;;;28.60;4.30;;;8.10;99.90;;;;;;5095130;28;20373;-79
2023/12/26 07:50:19;;;;;;;24.07;3.80;;;8.10;99.90;;;;;;5095623;28;20274;-80
2023/12/26 07:52:45;;;;;;;27.40;4.33;;;8.10;99.90;;;;;;5095053;28;20305;-80
2023/12/26 07:55:11;;;;;;;21.13;4.60;;;8.10;99.90;;;;;;5094948;28;20047;-80
2023/12/26 07:57:37;;;;;;;24.73;4.40;;;8.10;99.90;;;;;;5094785;28;20048;-80
2023/12/26 08:00:04;;;;;;;23.67;3.90;;;8.20;99.90;;;;;;5095092;28;20742;-80
2023/12/26 08:02:29;;;;;;;24.10;4.33;;;8.20;99.90;;;;;;5093705;28;20278;-76
2023/12/26 08:04:55;;;;;;;17.23;3.33;;;8.20;99.90;;;;;;5094589;28;20278;-75
2023/12/26 08:07:21;;;;;;;23.27;3.73;;;8.20;99.90;;;;;;5094467;28;20507;-75
2023/12/26 08:09:46;;;;;;;19.63;4.10;;;8.20;99.90;;;;;;5076936;28;20062;-75
2023/12/26 08:12:12;;;;;;;23.13;3.87;;;8.20;99.90;;;;;;5094697;28;20052;-73
2023/12/26 08:14:38;;;;;;;27.83;3.83;;;8.20;99.90;;;;;;5094402;28;20135;-73
2023/12/26 08:17:04;;;;;;;27.77;4.67;;;8.20;99.90;;;;;;5095148;28;20046;-73
2023/12/26 08:19:31;;;;;;;25.67;4.53;;;8.20;99.90;;;;;;5094563;28;20040;-75
2023/12/26 08:21:57;;;;;;;17.90;4.13;;;8.20;99.90;;;;;;5093255;28;20282;-75
2023/12/26 08:24:22;;;;;;;20.03;3.50;;;8.20;99.90;;;;;;5093745;28;20293;-75
2023/12/26 08:26:53;;;;;;;20.13;4.30;;;8.20;99.90;;;;;;5094421;28;20097;-75
2023/12/26 08:29:19;;;;;;;21.60;4.27;;;8.30;99.90;;;;;;5094592;28;20040;-73
2023/12/26 08:31:44;;;;;;;25.57;4.13;;;8.20;99.90;;;;;;5094327;28;20278;-74
2023/12/26 08:34:10;;;;;;;23.07;4.53;;;8.30;99.90;;;;;;5094297;28;20327;-74
2023/12/26 08:36:36;;;;;;;22.50;4.67;;;8.30;99.90;;;;;;5060588;28;20108;-74
2023/12/26 08:39:02;;;;;;;20.40;4.00;;;8.30;99.90;;;;;;5092931;28;20067;-74
2023/12/26 08:41:27;;;;;;;24.70;3.77;;;8.30;99.90;;;;;;5094801;28;20040;-74
2023/12/26 08:43:53;;;;;;;21.57;3.83;;;8.30;99.90;;;;;;5094467;28;20044;-74
2023/12/26 08:46:19;;;;;;;24.13;4.13;;;8.30;99.90;;;;;;5094761;28;20052;-73
2023/12/26 08:48:45;;;;;;;19.23;2.97;;;8.30;99.90;;;;;;5092909;28;20312;-74
2023/12/26 08:51:11;;;;;;;21.27;4.00;;;8.30;99.90;;;;;;5092890;28;20044;-74
2023/12/26 08:53:37;;;;;;;19.00;3.33;;;8.30;99.90;;;;;;5094791;28;20043;-75
2023/12/26 08:56:05;;;;;;;18.93;3.63;;;8.30;99.90;;;;;;5092850;28;20056;-74
2023/12/26 08:58:35;;;;;;;19.07;3.77;;;8.30;99.90;;;;;;5093981;28;20301;-73
2023/12/26 09:01:01;;;;;;;23.00;3.57;;;8.40;99.90;;;;;;5092749;28;20361;-71
2023/12/26 09:03:27;;;;;;;19.83;3.80;;;8.30;99.90;;;;;;5076104;28;20286;-74
2023/12/26 09:05:54;;;;;;;17.10;3.57;;;8.30;99.90;;;;;;5093842;28;20280;-76
2023/12/26 09:08:20;;;;;;;20.43;3.70;;;8.30;99.90;;;;;;5075750;28;20294;-73
2023/12/26 09:10:45;;;;;;;22.93;4.37;;;8.40;99.90;;;;;;5092842;28;20282;-72
2023/12/26 09:13:11;;;;;;;21.07;3.53;;;8.40;99.90;;;;;;5092827;28;20119;-73
2023/12/26 09:15:37;;;;;;;21.27;3.47;;;8.40;99.90;;;;;;5093842;28;20052;-75
2023/12/26 09:18:03;;;;;;;22.70;4.07;;;8.40;99.90;;;;;;5092368;28;20135;-75
2023/12/26 09:20:29;;;;;;;20.93;4.00;;;8.40;99.90;;;;;;5075594;28;20558;-75
2023/12/26 09:22:55;;;;;;;14.10;3.57;;;8.40;99.90;;;;;;5092672;28;20307;-75
2023/12/26 09:25:20;;;;;;;21.97;4.10;;;8.40;99.90;;;;;;5093481;28;20089;-75
2023/12/26 09:27:46;;;;;;;24.10;4.53;;;8.40;99.90;;;;;;5093255;28;20044;-75
2023/12/26 09:30:13;;;;;;;25.67;3.90;;;8.40;99.90;;;;;;5092070;28;20049;-75
2023/12/26 09:32:39;;;;;;;21.50;5.00;;;8.40;99.90;;;;;;5093291;28;20055;-75
2023/12/26 09:35:05;;;;;;;23.17;3.77;;;8.40;99.90;;;;;;5093423;28;20274;-75
2023/12/26 09:37:34;;;;;;;21.07;4.47;;;8.40;99.90;;;;;;5093579;28;20126;-75
2023/12/26 09:40:02;;;;;;;20.67;3.23;;;8.40;99.90;;;;;;5093461;28;20043;-75
2023/12/26 09:42:29;;;;;;;22.27;4.43;;;8.40;99.90;;;;;;5092934;28;20270;-75
2023/12/26 09:44:55;;;;;;;25.43;4.00;;;8.40;99.90;;;;;;5093437;28;20278;-75
2023/12/26 09:47:23;;;;;;;20.07;4.40;;;8.50;99.90;;;;;;5092280;28;20286;-75
2023/12/26 09:49:50;;;;;;;20.47;3.27;;;8.50;99.90;;;;;;5093976;28;20271;-75
2023/12/26 09:52:16;;;;;;;27.17;3.90;;;8.50;99.90;;;;;;5092467;28;20369;-75
2023/12/26 09:54:44;;;;;;;19.67;3.57;;;8.50;99.90;;;;;;5093386;28;20359;-75
2023/12/26 09:57:10;;;;;;;19.60;4.17;;;8.50;99.90;;;;;;5092459;28;20625;-75
2023/12/26 09:59:37;;;;;;;30.50;4.50;;;8.60;99.90;;;;;;5093289;28;20316;-75
2023/12/26 10:02:04;;;;;;;21.87;4.20;;;8.60;99.90;;;;;;5093017;28;20578;-75
2023/12/26 10:04:30;;;;;;;23.07;4.17;;;8.70;99.90;;;;;;5093413;28;20270;-75
2023/12/26 10:06:56;;;;;;;17.50;3.67;;;8.70;99.90;;;;;;5092937;28;20284;-75
2023/12/26 10:09:22;;;;;;;21.10;4.30;;;8.70;99.90;;;;;;5092110;28;20052;-75
2023/12/26 10:11:51;;;;;;;16.93;3.83;;;8.70;99.90;;;;;;5092255;28;20059;-75
2023/12/26 10:14:29;;;;;;;18.80;3.73;;;8.70;99.90;;;;;;5094012;28;20051;-75
2023/12/26 10:16:56;;;;;;;20.67;4.10;;;8.70;99.90;;;;;;5093816;28;20327;-76
2023/12/26 10:19:23;;;;;;;18.73;4.23;;;8.70;99.90;;;;;;5093081;28;20646;-75
2023/12/26 10:21:50;;;;;;;21.40;5.33;;;8.70;99.90;;;;;;5093103;28;20297;-76
2023/12/26 10:24:17;;;;;;;17.97;3.53;;;8.70;99.90;;;;;;5093105;28;20278;-75
2023/12/26 10:26:43;;;;;;;21.10;4.57;;;8.70;99.90;;;;;;5091916;28;20274;-75
2023/12/26 10:29:13;;;;;;;17.03;3.43;;;8.70;99.90;;;;;;5095509;28;20772;-75
2023/12/26 10:31:43;;;;;;;20.17;3.97;;;8.70;99.90;;;;;;5096730;28;20047;-75
2023/12/26 10:34:16;;;;;;;27.23;4.53;;;8.70;99.90;;;;;;5095657;28;20294;-75
2023/12/26 10:36:49;;;;;;;22.30;4.67;;;8.70;99.90;;;;;;5079652;28;20396;-75
2023/12/26 10:39:17;;;;;;;18.90;4.13;;;8.80;99.90;;;;;;5095205;28;20303;-75
2023/12/26 10:41:42;;;;;;;29.60;5.40;;;8.80;99.90;;;;;;5096441;28;20274;-75
2023/12/26 10:44:09;;;;;;;29.83;4.53;;;8.80;99.90;;;;;;5095713;28;20286;-75
2023/12/26 10:46:36;;;;;;;29.17;4.43;;;8.70;99.90;;;;;;5096231;28;20051;-75
2023/12/26 10:49:06;;;;;;;24.73;4.40;;;8.70;99.90;;;;;;5096617;28;20669;-75
2023/12/26 10:51:32;;;;;;;21.37;4.03;;;8.70;99.90;;;;;;5096544;28;20289;-75
2023/12/26 10:54:10;;;;;;;22.57;5.30;;;8.70;99.90;;;;;;5095224;28;20347;-75
2023/12/26 10:56:37;;;;;;;25.53;3.83;;;8.80;99.90;;;;;;5096209;28;20336;-75
2023/12/26 10:59:03;;;;;;;23.73;4.17;;;8.80;99.90;;;;;;5094918;28;20302;-75
2023/12/26 13:53:45;;;;;;;9.33;1.53;;;8.30;99.90;;;;;;5093507;28;20278;-75
2023/12/26 13:56:48;;;;;;;8.33;1.30;;;8.30;99.90;;;;;;5092185;28;20785;-73
2023/12/26 13:59:51;;;;;;;10.30;1.80;;;8.30;99.90;;;;;;5093360;28;20298;-75
2023/12/26 14:02:54;;;;;;;11.90;1.60;;;8.30;99.90;;;;;;5093833;28;20281;-74
2023/12/26 14:05:57;;;;;;;12.17;2.03;;;8.20;99.90;;;;;;5097455;28;20610;-73
2023/12/26 14:09:01;;;;;;;8.53;1.43;;;8.20;99.90;;;;;;5095388;28;20361;-73
2023/12/26 14:12:04;;;;;;;11.53;1.90;;;8.20;99.90;;;;;;5095825;28;20286;-74
2023/12/26 14:15:08;;;;;;;9.33;1.63;;;8.10;99.90;;;;;;5096733;28;20281;-74
2023/12/26 14:18:11;;;;;;;10.00;2.10;;;8.10;99.90;;;;;;5096774;28;20285;-72
2023/12/26 14:21:14;;;;;;;11.10;1.93;;;8.10;99.90;;;;;;5095527;28;20278;-74
2023/12/26 14:24:17;;;;;;;8.77;1.60;;;8.10;99.90;;;;;;5097494;28;20362;-74
2023/12/26 14:27:20;;;;;;;7.13;1.90;;;8.00;99.90;;;;;;5096048;28;20294;-73
2023/12/26 14:30:23;;;;;;;12.47;2.97;;;8.00;99.90;;;;;;5095550;28;20294;-75
2023/12/26 14:33:27;;;;;;;9.53;1.53;;;8.00;99.90;;;;;;5095621;28;20329;-76
2023/12/26 14:36:30;;;;;;;10.60;2.03;;;8.00;99.90;;;;;;5096385;28;20321;-73
2023/12/26 14:39:33;;;;;;;10.93;2.03;;;7.90;99.90;;;;;;5096959;28;20294;-73
2023/12/26 14:42:36;;;;;;;6.13;1.47;;;7.90;99.90;;;;;;5095401;28;20388;-74
2023/12/26 14:45:40;;;;;;;8.53;1.90;;;7.80;99.90;;;;;;5096230;28;20305;-74
2023/12/26 14:48:43;;;;;;;10.27;1.97;;;7.80;99.90;;;;;;5096225;28;20344;-75
2023/12/26 14:51:46;;;;;;;10.27;2.43;;;7.70;99.90;;;;;;5096205;28;20325;-73
2023/12/26 14:54:49;;;;;;;10.87;1.70;;;7.70;99.90;;;;;;5096900;28;20634;-76
2023/12/26 14:57:52;;;;;;;12.93;2.43;;;7.70;99.90;;;;;;5078183;28;20293;-74
2023/12/26 15:00:56;;;;;;;14.50;1.97;;;7.60;99.90;;;;;;5095855;28;20380;-72
2023/12/26 15:03:21;;;;;;;12.80;2.03;;;7.60;99.90;;;;;;5078318;28;20356;-72
2023/12/26 15:05:47;;;;;;;12.07;2.50;;;7.60;99.90;;;;;;5096297;28;20746;-74
2023/12/26 15:08:13;;;;;;;13.67;2.30;;;7.70;99.90;;;;;;5095940;28;20052;-74
2023/12/26 15:10:38;;;;;;;10.87;2.07;;;7.70;99.90;;;;;;5095954;28;20503;-76
2023/12/26 15:13:04;;;;;;;13.77;2.27;;;7.70;99.90;;;;;;5078014;28;20127;-74
2023/12/26 15:15:30;;;;;;;17.33;2.40;;;7.70;99.90;;;;;;5094850;28;20131;-74
2023/12/26 15:17:56;;;;;;;11.00;2.80;;;7.70;99.90;;;;;;5094880;28;20054;-75
2023/12/26 15:20:22;;;;;;;10.37;2.13;;;7.70;99.90;;;;;;5095704;28;20028;-75
2023/12/26 15:22:48;;;;;;;9.70;1.70;;;7.60;99.90;;;;;;5096205;28;20316;-74
2023/12/26 15:25:14;;;;;;;9.77;1.50;;;7.50;99.90;;;;;;5095562;28;20083;-75
2023/12/26 15:27:41;;;;;;;10.33;1.93;;;7.50;99.90;;;;;;5094450;28;20339;-75
2023/12/26 15:30:09;;;;;;;10.53;1.83;;;7.40;99.90;;;;;;5094595;28;20290;-74
2023/12/26 15:32:35;;;;;;;11.60;1.97;;;7.40;99.90;;;;;;5095219;28;20789;-73
2023/12/26 15:35:03;;;;;;;8.27;1.70;;;7.30;99.90;;;;;;5095238;28;20286;-73
2023/12/26 15:37:29;;;;;;;10.87;2.00;;;7.20;99.90;;;;;;5095514;28;20061;-74
2023/12/26 15:39:55;;;;;;;7.90;2.10;;;7.30;99.90;;;;;;5095312;28;20302;-71
2023/12/26 15:42:21;;;;;;;14.23;2.83;;;7.20;99.90;;;;;;5095142;28;20135;-84
2023/12/26 15:44:46;;;;;;;12.13;2.43;;;7.20;99.90;;;;;;5094024;28;20048;-79
2023/12/26 15:47:13;;;;;;;9.17;2.50;;;7.10;99.90;;;;;;5094878;28;20106;-78
2023/12/26 15:49:39;;;;;;;8.90;2.13;;;7.10;99.90;;;;;;5094983;28;20051;-81